createdAt,value
2018-07-14T00:00:26.151Z,18.10
2018-07-14T00:02:54.070Z,18.10
2018-07-14T00:05:22.027Z,18.10
2018-07-14T00:07:49.951Z,18.20
2018-07-14T00:10:17.929Z,18.20
2018-07-14T00:12:45.931Z,18.20
2018-07-14T00:15:13.891Z,18.40
2018-07-14T00:17:41.863Z,18.50
2018-07-14T00:20:09.822Z,18.50
2018-07-14T00:22:37.773Z,18.40
2018-07-14T00:25:05.867Z,18.70
2018-07-14T00:27:33.816Z,18.80
2018-07-14T00:30:01.828Z,18.60
2018-07-14T00:32:29.827Z,18.60
2018-07-14T00:34:57.848Z,18.50
2018-07-14T00:37:25.784Z,18.30
2018-07-14T00:39:53.816Z,18.10
2018-07-14T00:42:21.752Z,17.80
2018-07-14T00:44:49.707Z,17.70
2018-07-14T00:47:17.688Z,17.70
2018-07-14T00:49:45.640Z,17.80
2018-07-14T00:52:13.587Z,17.80
2018-07-14T00:54:41.535Z,17.80
2018-07-14T00:57:09.493Z,17.70
2018-07-14T00:59:37.486Z,17.70
2018-07-14T01:02:05.635Z,17.50
2018-07-14T01:04:33.544Z,17.40
2018-07-14T01:07:01.514Z,17.30
2018-07-14T01:09:29.461Z,17.50
2018-07-14T01:11:57.487Z,17.40
2018-07-14T01:14:25.484Z,17.40
2018-07-14T01:16:53.418Z,17.30
2018-07-14T01:19:21.371Z,17.10
2018-07-14T01:21:49.335Z,17.10
2018-07-14T01:24:17.420Z,17.00
2018-07-14T01:26:45.341Z,17.00
2018-07-14T01:29:14.369Z,17.00
2018-07-14T01:31:42.675Z,16.90
2018-07-14T01:34:10.689Z,16.90
2018-07-14T01:36:38.712Z,17.00
2018-07-14T01:39:07.409Z,17.00
2018-07-14T01:41:35.487Z,17.10
2018-07-14T01:44:03.435Z,17.00
2018-07-14T01:46:31.441Z,17.10
2018-07-14T01:48:59.521Z,16.90
2018-07-14T01:51:27.490Z,16.70
2018-07-14T01:53:55.432Z,16.70
2018-07-14T01:56:23.344Z,16.80
2018-07-14T01:58:51.309Z,17.30
2018-07-14T02:01:19.308Z,17.40
2018-07-14T02:03:47.256Z,17.30
2018-07-14T02:06:15.187Z,17.20
2018-07-14T02:08:43.132Z,17.30
2018-07-14T02:11:11.061Z,17.30
2018-07-14T02:13:39.004Z,17.20
2018-07-14T02:16:07.257Z,17.20
2018-07-14T02:18:35.301Z,17.10
2018-07-14T02:21:03.262Z,16.90
2018-07-14T02:23:31.192Z,17.00
2018-07-14T02:25:59.175Z,16.90
2018-07-14T02:28:27.122Z,16.90
2018-07-14T02:30:55.061Z,16.90
2018-07-14T02:33:23.071Z,17.00
2018-07-14T02:35:50.994Z,17.10
2018-07-14T02:38:18.913Z,17.10
2018-07-14T02:40:46.888Z,17.00
2018-07-14T02:43:14.845Z,16.90
2018-07-14T02:45:42.830Z,16.90
2018-07-14T02:48:10.796Z,16.90
2018-07-14T02:50:38.716Z,16.90
2018-07-14T02:53:06.721Z,16.90
2018-07-14T02:55:34.638Z,17.00
2018-07-14T02:58:02.656Z,17.10
2018-07-14T03:00:30.576Z,17.10
2018-07-14T03:02:58.511Z,17.20
2018-07-14T03:05:26.474Z,17.30
2018-07-14T03:07:54.439Z,17.20
2018-07-14T03:10:22.407Z,17.10
2018-07-14T03:12:50.524Z,17.00
2018-07-14T03:15:18.406Z,17.00
2018-07-14T03:17:46.425Z,16.90
2018-07-14T03:20:14.334Z,16.90
2018-07-14T03:22:42.316Z,16.80
2018-07-14T03:25:10.265Z,16.70
2018-07-14T03:27:38.241Z,16.60
2018-07-14T03:30:06.333Z,16.70
2018-07-14T03:32:34.258Z,16.60
2018-07-14T03:35:02.220Z,16.50
2018-07-14T03:37:30.180Z,16.60
2018-07-14T03:39:58.188Z,16.40
2018-07-14T03:42:26.160Z,16.40
2018-07-14T03:44:54.197Z,16.40
2018-07-14T03:47:22.134Z,16.40
2018-07-14T03:49:50.073Z,16.30
2018-07-14T03:52:18.104Z,16.20
2018-07-14T03:54:46.028Z,16.40
2018-07-14T03:57:13.997Z,16.20
2018-07-14T03:59:41.945Z,16.10
2018-07-14T04:02:09.904Z,16.10
2018-07-14T04:04:37.815Z,16.10
2018-07-14T04:07:05.737Z,16.00
2018-07-14T04:09:33.739Z,16.10
2018-07-14T04:12:01.688Z,16.10
2018-07-14T04:14:29.659Z,16.10
2018-07-14T04:16:57.585Z,16.10
2018-07-14T04:19:25.564Z,16.10
2018-07-14T04:21:53.501Z,16.20
2018-07-14T04:24:21.432Z,16.20
2018-07-14T04:26:49.385Z,16.20
2018-07-14T04:29:17.302Z,16.10
2018-07-14T04:31:45.261Z,16.20
2018-07-14T04:34:13.161Z,16.20
2018-07-14T04:36:41.118Z,16.20
2018-07-14T04:39:09.076Z,16.20
2018-07-14T04:41:37.004Z,16.20
2018-07-14T04:44:04.954Z,16.30
2018-07-14T04:46:32.929Z,16.20
2018-07-14T04:49:01.089Z,16.20
2018-07-14T04:51:29.037Z,16.30
2018-07-14T04:53:57.004Z,16.30
2018-07-14T04:56:24.952Z,16.40
2018-07-14T04:58:52.856Z,16.40
2018-07-14T05:01:20.848Z,16.40
2018-07-14T05:03:48.818Z,16.60
2018-07-14T05:06:16.817Z,16.60
2018-07-14T05:08:44.725Z,16.60
2018-07-14T05:11:12.698Z,16.60
2018-07-14T05:13:40.661Z,16.70
2018-07-14T05:16:08.591Z,16.70
2018-07-14T05:18:36.595Z,16.80
2018-07-14T05:21:04.598Z,16.80
2018-07-14T05:23:32.581Z,16.80
2018-07-14T05:26:00.559Z,16.90
2018-07-14T05:28:28.585Z,17.00
2018-07-14T05:30:56.485Z,17.20
2018-07-14T05:33:24.417Z,17.20
2018-07-14T05:35:52.370Z,17.30
2018-07-14T05:38:20.300Z,17.20
2018-07-14T05:40:48.458Z,17.30
2018-07-14T05:43:16.421Z,17.30
2018-07-14T05:45:44.349Z,17.40
2018-07-14T05:48:12.334Z,17.50
2018-07-14T05:50:40.262Z,17.70
2018-07-14T05:53:08.205Z,17.80
2018-07-14T05:55:36.189Z,18.00
2018-07-14T05:58:04.244Z,18.10
2018-07-14T06:00:32.179Z,18.30
2018-07-14T06:03:00.145Z,18.40
2018-07-14T06:05:28.090Z,18.40
2018-07-14T06:07:56.026Z,18.30
2018-07-14T06:10:23.968Z,18.40
2018-07-14T06:12:51.910Z,18.80
2018-07-14T06:15:19.857Z,19.00
2018-07-14T06:17:47.857Z,19.00
2018-07-14T06:20:15.781Z,19.20
2018-07-14T06:22:43.694Z,19.20
2018-07-14T06:25:11.695Z,19.30
2018-07-14T06:27:39.599Z,19.50
2018-07-14T06:30:08.227Z,19.50
2018-07-14T06:32:36.163Z,19.60
2018-07-14T06:35:04.250Z,19.90
2018-07-14T06:37:32.230Z,19.90
2018-07-14T06:40:00.173Z,20.00
2018-07-14T06:42:28.165Z,19.90
2018-07-14T06:44:56.149Z,20.00
2018-07-14T06:47:24.117Z,19.90
2018-07-14T06:49:52.043Z,19.90
2018-07-14T06:52:19.996Z,19.90
2018-07-14T06:54:47.997Z,20.10
2018-07-14T06:57:15.958Z,19.90
2018-07-14T06:59:43.911Z,20.10
2018-07-14T07:02:11.958Z,20.00
2018-07-14T07:04:39.924Z,20.20
2018-07-14T07:07:07.988Z,20.20
2018-07-14T07:09:35.995Z,20.40
2018-07-14T07:12:03.976Z,20.40
2018-07-14T07:14:31.935Z,20.40
2018-07-14T07:16:59.924Z,20.60
2018-07-14T07:19:29.295Z,20.80
2018-07-14T07:21:59.210Z,20.90
2018-07-14T07:24:32.172Z,20.80
2018-07-14T07:27:01.514Z,20.90
2018-07-14T07:29:30.677Z,20.50
2018-07-14T07:31:59.446Z,20.50
2018-07-14T07:34:28.353Z,20.50
2018-07-14T07:36:57.727Z,20.60
2018-07-14T07:39:27.481Z,20.40
2018-07-14T07:41:55.591Z,20.40
2018-07-14T07:44:23.525Z,20.60
2018-07-14T07:46:51.499Z,20.70
2018-07-14T07:49:19.430Z,20.70
2018-07-14T07:51:47.411Z,20.70
2018-07-14T07:54:16.377Z,20.80
2018-07-14T07:56:45.273Z,20.80
2018-07-14T07:59:13.286Z,20.90
2018-07-14T08:01:41.402Z,20.90
2018-07-14T08:04:09.393Z,21.00
2018-07-14T08:06:37.336Z,21.20
2018-07-14T08:09:06.095Z,21.10
2018-07-14T08:11:34.011Z,20.70
2018-07-14T08:14:02.043Z,20.90
2018-07-14T08:16:32.162Z,21.10
2018-07-14T08:19:00.153Z,21.20
2018-07-14T08:21:28.128Z,21.10
2018-07-14T08:23:56.074Z,21.20
2018-07-14T08:26:24.341Z,21.40
2018-07-14T08:28:52.933Z,21.80
2018-07-14T08:31:20.925Z,21.80
2018-07-14T08:33:48.952Z,21.80
2018-07-14T08:36:16.891Z,21.90
2018-07-14T08:38:44.852Z,21.80
2018-07-14T08:41:13.001Z,21.80
2018-07-14T08:43:41.019Z,22.20
2018-07-14T08:46:09.151Z,21.80
2018-07-14T08:48:37.148Z,21.90
2018-07-14T08:51:05.374Z,22.00
2018-07-14T08:53:33.368Z,22.30
2018-07-14T08:56:01.346Z,22.20
2018-07-14T08:58:29.484Z,22.00
2018-07-14T09:00:59.158Z,22.10
2018-07-14T09:03:27.307Z,22.20
2018-07-14T09:05:55.898Z,22.50
2018-07-14T09:08:23.958Z,22.30
2018-07-14T09:10:51.972Z,22.20
2018-07-14T09:13:19.905Z,22.40
2018-07-14T09:15:47.922Z,22.50
2018-07-14T09:18:15.888Z,22.60
2018-07-14T09:20:44.075Z,22.60
2018-07-14T09:23:12.100Z,23.10
2018-07-14T09:25:40.065Z,23.00
2018-07-14T09:28:08.018Z,22.90
2018-07-14T09:30:36.013Z,23.10
2018-07-14T09:33:03.964Z,23.20
2018-07-14T09:35:31.925Z,23.40
2018-07-14T09:37:59.935Z,23.30
2018-07-14T09:40:27.820Z,23.50
2018-07-14T09:42:55.846Z,23.90
2018-07-14T09:45:23.767Z,23.40
2018-07-14T09:47:51.794Z,23.80
2018-07-14T09:50:19.716Z,23.70
2018-07-14T09:52:47.707Z,23.70
2018-07-14T09:55:15.785Z,23.80
2018-07-14T09:57:43.716Z,23.70
2018-07-14T10:00:29.862Z,23.80
2018-07-14T10:02:57.765Z,24.20
2018-07-14T10:05:25.706Z,24.20
2018-07-14T10:07:53.745Z,24.20
2018-07-14T10:10:21.741Z,23.80
2018-07-14T10:12:49.678Z,24.40
2018-07-14T10:15:17.614Z,24.30
2018-07-14T10:17:45.602Z,24.40
2018-07-14T10:20:13.524Z,24.20
2018-07-14T10:22:41.456Z,24.30
2018-07-14T10:25:09.399Z,24.80
2018-07-14T10:27:37.428Z,24.90
2018-07-14T10:30:05.361Z,24.20
2018-07-14T10:32:33.334Z,24.80
2018-07-14T10:35:01.270Z,25.00
2018-07-14T10:37:29.235Z,24.70
2018-07-14T10:39:57.156Z,25.20
2018-07-14T10:42:25.162Z,25.10
2018-07-14T10:44:53.061Z,25.00
2018-07-14T10:47:21.034Z,25.20
2018-07-14T10:49:48.950Z,25.60
2018-07-14T10:52:17.100Z,25.20
2018-07-14T10:54:45.021Z,25.00
2018-07-14T10:57:14.680Z,25.40
2018-07-14T10:59:43.977Z,25.50
2018-07-14T11:02:11.938Z,25.20
2018-07-14T11:04:39.865Z,25.80
2018-07-14T11:07:07.804Z,26.20
2018-07-14T11:09:35.825Z,26.10
2018-07-14T11:12:03.865Z,26.50
2018-07-14T11:14:31.703Z,26.40
2018-07-14T11:16:59.669Z,26.00
2018-07-14T11:19:27.619Z,26.30
2018-07-14T11:21:55.593Z,26.00
2018-07-14T11:24:23.521Z,26.50
2018-07-14T11:26:51.623Z,27.10
2018-07-14T11:29:19.567Z,26.80
2018-07-14T11:31:47.546Z,26.90
2018-07-14T11:34:15.468Z,27.20
2018-07-14T11:36:43.419Z,27.40
2018-07-14T11:39:11.419Z,27.50
2018-07-14T11:41:39.389Z,28.00
2018-07-14T11:44:07.366Z,27.60
2018-07-14T11:46:35.343Z,27.40
2018-07-14T11:49:03.301Z,27.50
2018-07-14T11:51:31.288Z,27.70
2018-07-14T11:53:59.245Z,28.30
2018-07-14T11:56:27.205Z,27.70
2018-07-14T11:58:55.130Z,27.90
2018-07-14T12:01:23.132Z,27.60
2018-07-14T12:03:51.094Z,28.20
2018-07-14T12:06:19.083Z,27.60
2018-07-14T12:08:47.009Z,27.90
2018-07-14T12:11:14.991Z,28.10
2018-07-14T12:13:42.937Z,28.10
2018-07-14T12:16:10.937Z,28.80
2018-07-14T12:18:38.917Z,28.80
2018-07-14T12:21:06.890Z,28.50
2018-07-14T12:23:34.821Z,29.20
2018-07-14T12:26:02.789Z,29.70
2018-07-14T12:28:30.966Z,29.90
2018-07-14T12:30:59.034Z,29.00
2018-07-14T12:33:27.170Z,30.10
2018-07-14T12:35:55.157Z,30.90
2018-07-14T12:38:24.023Z,30.30
2018-07-14T12:40:52.012Z,29.50
2018-07-14T12:43:20.011Z,29.60
2018-07-14T12:45:47.927Z,30.20
2018-07-14T12:48:15.937Z,30.20
2018-07-14T12:50:43.936Z,30.10
2018-07-14T12:53:11.879Z,30.20
2018-07-14T12:55:39.883Z,30.80
2018-07-14T12:58:07.831Z,30.20
2018-07-14T13:00:35.802Z,31.90
2018-07-14T13:03:03.757Z,30.90
2018-07-14T13:05:31.727Z,29.80
2018-07-14T13:07:59.714Z,31.60
2018-07-14T13:10:27.659Z,31.20
2018-07-14T13:12:55.605Z,31.00
2018-07-14T13:15:23.565Z,30.50
2018-07-14T13:17:51.485Z,31.00
2018-07-14T13:20:19.461Z,30.80
2018-07-14T13:22:47.447Z,31.50
2018-07-14T13:25:15.509Z,30.20
2018-07-14T13:27:43.489Z,30.80
2018-07-14T13:30:11.481Z,31.20
2018-07-14T13:32:39.480Z,31.60
2018-07-14T13:35:07.462Z,31.30
2018-07-14T13:37:35.429Z,31.60
2018-07-14T13:40:03.473Z,32.00
2018-07-14T13:42:31.429Z,31.30
2018-07-14T13:44:59.428Z,31.60
2018-07-14T13:47:27.379Z,31.60
2018-07-14T13:49:55.434Z,31.20
2018-07-14T13:52:23.386Z,31.10
2018-07-14T13:54:51.356Z,31.50
2018-07-14T13:57:19.286Z,31.50
2018-07-14T13:59:47.257Z,31.70
2018-07-14T14:02:15.220Z,32.40
2018-07-14T14:04:43.188Z,31.50
2018-07-14T14:07:11.126Z,31.80
2018-07-14T14:09:39.126Z,31.70
2018-07-14T14:12:07.167Z,31.70
2018-07-14T14:14:35.321Z,31.30
2018-07-14T14:17:03.349Z,30.20
2018-07-14T14:19:31.294Z,30.20
2018-07-14T14:21:59.264Z,30.00
2018-07-14T14:24:27.239Z,29.70
2018-07-14T14:26:55.163Z,30.50
2018-07-14T14:29:23.119Z,30.80
2018-07-14T14:31:51.066Z,30.80
2018-07-14T14:34:19.058Z,31.20
2018-07-14T14:36:47.011Z,31.50
2018-07-14T14:39:14.978Z,31.00
2018-07-14T14:41:42.932Z,32.40
2018-07-14T14:44:10.904Z,33.90
2018-07-14T14:46:38.888Z,33.00
2018-07-14T14:49:06.863Z,35.60
2018-07-14T14:51:34.818Z,34.70
2018-07-14T14:54:02.783Z,33.40
2018-07-14T14:56:30.714Z,32.50
2018-07-14T14:58:58.681Z,31.70
2018-07-14T15:01:26.638Z,30.60
2018-07-14T15:03:54.642Z,31.80
2018-07-14T15:06:22.575Z,31.90
2018-07-14T15:08:50.546Z,31.60
2018-07-14T15:11:18.509Z,31.00
2018-07-14T15:13:46.480Z,34.20
2018-07-14T15:16:14.424Z,35.50
2018-07-14T15:18:42.379Z,34.60
2018-07-14T15:21:10.373Z,36.30
2018-07-14T15:23:38.378Z,33.10
2018-07-14T15:26:06.304Z,31.80
2018-07-14T15:28:34.281Z,32.70
2018-07-14T15:31:02.258Z,33.20
2018-07-14T15:33:30.223Z,33.80
2018-07-14T15:35:58.145Z,33.00
2018-07-14T15:38:26.118Z,33.50
2018-07-14T15:40:54.057Z,33.90
2018-07-14T15:43:22.054Z,33.00
2018-07-14T15:45:50.033Z,32.90
2018-07-14T15:48:17.992Z,32.50
2018-07-14T15:50:45.934Z,32.40
2018-07-14T15:53:13.902Z,31.90
2018-07-14T15:55:41.854Z,32.50
2018-07-14T15:58:09.906Z,33.10
2018-07-14T16:00:37.909Z,32.70
2018-07-14T16:03:06.060Z,32.90
2018-07-14T16:05:34.032Z,33.20
2018-07-14T16:08:01.984Z,32.90
2018-07-14T16:10:29.919Z,32.70
2018-07-14T16:12:57.886Z,32.70
2018-07-14T16:15:26.399Z,32.50
2018-07-14T16:17:54.368Z,32.40
2018-07-14T16:20:22.310Z,32.60
2018-07-14T16:22:50.364Z,33.30
2018-07-14T16:25:18.295Z,32.30
2018-07-14T16:27:46.239Z,32.80
2018-07-14T16:30:14.171Z,33.00
2018-07-14T16:32:42.141Z,32.50
2018-07-14T16:35:10.105Z,33.40
2018-07-14T16:37:38.004Z,32.70
2018-07-14T16:40:05.944Z,32.90
2018-07-14T16:42:33.901Z,33.00
2018-07-14T16:45:01.817Z,32.80
2018-07-14T16:47:29.785Z,33.00
2018-07-14T16:49:57.706Z,32.90
2018-07-14T16:52:25.660Z,32.90
2018-07-14T16:54:53.595Z,32.50
2018-07-14T16:57:21.564Z,32.90
2018-07-14T16:59:49.593Z,32.80
2018-07-14T17:02:17.510Z,32.70
2018-07-14T17:04:45.466Z,32.50
2018-07-14T17:07:13.467Z,31.90
2018-07-14T17:09:41.397Z,33.60
2018-07-14T17:12:09.343Z,34.20
2018-07-14T17:14:37.301Z,34.60
2018-07-14T17:17:05.269Z,33.90
2018-07-14T17:19:33.230Z,33.80
2018-07-14T17:22:01.155Z,33.60
2018-07-14T17:24:29.098Z,33.80
2018-07-14T17:26:57.074Z,32.90
2018-07-14T17:29:24.989Z,33.00
2018-07-14T17:31:52.920Z,33.60
2018-07-14T17:34:20.871Z,33.40
2018-07-14T17:36:48.806Z,33.40
2018-07-14T17:39:16.776Z,32.80
2018-07-14T17:41:44.712Z,33.10
2018-07-14T17:44:12.670Z,32.70
2018-07-14T17:46:40.590Z,32.70
2018-07-14T17:49:08.589Z,32.50
2018-07-14T17:51:36.650Z,32.70
2018-07-14T17:54:04.489Z,32.40
2018-07-14T17:56:32.433Z,32.30
2018-07-14T17:59:00.418Z,32.20
2018-07-14T18:01:28.351Z,32.20
2018-07-14T18:03:56.299Z,32.50
2018-07-14T18:06:24.232Z,31.30
2018-07-14T18:08:52.179Z,31.60
2018-07-14T18:11:20.166Z,30.30
2018-07-14T18:13:48.170Z,30.50
2018-07-14T18:16:16.118Z,29.50
2018-07-14T18:18:44.057Z,29.50
2018-07-14T18:21:12.029Z,28.90
2018-07-14T18:23:39.981Z,28.90
2018-07-14T18:26:07.903Z,28.60
2018-07-14T18:28:35.851Z,28.50
2018-07-14T18:31:03.781Z,28.60
2018-07-14T18:33:31.775Z,28.30
2018-07-14T18:35:59.752Z,28.70
2018-07-14T18:38:27.749Z,28.80
2018-07-14T18:40:55.673Z,27.90
2018-07-14T18:43:23.641Z,27.60
2018-07-14T18:45:51.573Z,27.70
2018-07-14T18:48:19.511Z,27.40
2018-07-14T18:50:47.472Z,27.10
2018-07-14T18:53:15.425Z,26.80
2018-07-14T18:55:43.378Z,26.70
2018-07-14T18:58:11.380Z,26.90
2018-07-14T19:00:39.357Z,26.10
2018-07-14T19:03:07.321Z,26.40
2018-07-14T19:05:35.246Z,26.00
2018-07-14T19:08:03.253Z,26.20
2018-07-14T19:10:31.183Z,25.90
2018-07-14T19:12:59.157Z,26.20
2018-07-14T19:15:27.113Z,26.20
2018-07-14T19:17:55.094Z,25.90
2018-07-14T19:20:23.051Z,25.90
2018-07-14T19:22:51.077Z,25.70
2018-07-14T19:25:19.006Z,25.50
2018-07-14T19:27:46.997Z,24.90
2018-07-14T19:30:14.928Z,25.00
2018-07-14T19:32:42.879Z,25.10
2018-07-14T19:35:10.809Z,25.00
2018-07-14T19:37:38.762Z,24.70
2018-07-14T19:40:06.865Z,24.70
2018-07-14T19:42:34.818Z,24.70
2018-07-14T19:45:02.914Z,25.00
2018-07-14T19:47:30.884Z,24.50
2018-07-14T19:49:58.835Z,24.60
2018-07-14T19:52:26.804Z,24.40
2018-07-14T19:54:54.729Z,24.40
2018-07-14T19:57:22.696Z,24.30
2018-07-14T19:59:50.625Z,24.30
2018-07-14T20:02:18.646Z,24.00
2018-07-14T20:04:46.705Z,23.90
2018-07-14T20:07:14.775Z,24.00
2018-07-14T20:09:42.732Z,23.80
2018-07-14T20:12:10.693Z,23.60
2018-07-14T20:14:38.650Z,23.90
2018-07-14T20:17:06.616Z,23.80
2018-07-14T20:19:34.567Z,23.70
2018-07-14T20:22:02.560Z,23.50
2018-07-14T20:24:30.532Z,23.80
2018-07-14T20:26:58.529Z,23.60
2018-07-14T20:29:26.473Z,23.50
2018-07-14T20:31:54.430Z,23.30
2018-07-14T20:34:22.368Z,23.30
2018-07-14T20:36:50.402Z,23.20
2018-07-14T20:39:18.352Z,23.30
2018-07-14T20:41:46.439Z,23.00
2018-07-14T20:44:14.322Z,23.00
2018-07-14T20:46:42.266Z,23.10
2018-07-14T20:49:10.214Z,23.20
2018-07-14T20:51:38.180Z,22.90
2018-07-14T20:54:06.186Z,22.70
2018-07-14T20:56:34.154Z,22.70
2018-07-14T20:59:02.075Z,22.50
2018-07-14T21:01:30.025Z,22.70
2018-07-14T21:03:57.959Z,22.90
2018-07-14T21:06:25.910Z,22.80
2018-07-14T21:08:53.842Z,22.90
2018-07-14T21:11:21.800Z,22.60
2018-07-14T21:13:49.741Z,22.30
2018-07-14T21:16:17.695Z,22.60
2018-07-14T21:18:45.617Z,22.30
2018-07-14T21:21:13.670Z,22.40
2018-07-14T21:23:41.560Z,22.30
2018-07-14T21:26:09.525Z,22.30
2018-07-14T21:28:37.493Z,22.20
2018-07-14T21:31:05.874Z,22.10
2018-07-14T21:33:33.859Z,22.10
2018-07-14T21:36:01.852Z,21.90
2018-07-14T21:38:29.771Z,22.10
2018-07-14T21:40:57.730Z,22.00
2018-07-14T21:43:25.657Z,22.00
2018-07-14T21:45:53.791Z,22.10
2018-07-14T21:48:21.701Z,21.60
2018-07-14T21:50:49.779Z,21.80
2018-07-14T21:53:17.637Z,21.80
2018-07-14T21:55:45.573Z,21.60
2018-07-14T21:58:13.547Z,21.60
2018-07-14T22:00:59.470Z,21.60
2018-07-14T22:03:27.404Z,21.60
2018-07-14T22:05:55.370Z,21.40
2018-07-14T22:08:23.298Z,21.60
2018-07-14T22:10:51.242Z,21.70
2018-07-14T22:13:19.152Z,21.60
2018-07-14T22:15:47.114Z,21.40
2018-07-14T22:18:15.057Z,21.50
2018-07-14T22:20:43.013Z,21.50
2018-07-14T22:23:11.107Z,21.60
2018-07-14T22:25:39.019Z,21.30
2018-07-14T22:28:06.986Z,21.40
2018-07-14T22:30:34.946Z,21.20
2018-07-14T22:33:02.897Z,21.30
2018-07-14T22:35:30.843Z,21.20
2018-07-14T22:37:58.767Z,21.00
2018-07-14T22:40:26.767Z,21.20
2018-07-14T22:42:54.684Z,21.20
2018-07-14T22:45:22.650Z,21.20
2018-07-14T22:47:50.589Z,21.10
2018-07-14T22:50:18.561Z,21.30
2018-07-14T22:52:46.528Z,21.20
2018-07-14T22:55:14.512Z,21.10
2018-07-14T22:57:42.439Z,21.00
2018-07-14T23:00:10.395Z,21.00
2018-07-14T23:02:38.308Z,20.90
2018-07-14T23:05:06.303Z,20.80
2018-07-14T23:07:34.257Z,20.90
2018-07-14T23:10:02.419Z,21.00
2018-07-14T23:12:30.380Z,21.00
2018-07-14T23:14:58.382Z,20.90
2018-07-14T23:17:26.283Z,20.80
2018-07-14T23:19:54.240Z,20.70
2018-07-14T23:22:22.167Z,20.80
2018-07-14T23:24:50.264Z,20.80
2018-07-14T23:27:18.050Z,20.80
2018-07-14T23:29:46.052Z,20.70
2018-07-14T23:32:13.980Z,20.80
2018-07-14T23:34:44.997Z,20.70
2018-07-14T23:37:12.901Z,20.70
2018-07-14T23:39:40.915Z,20.80
2018-07-14T23:42:10.100Z,20.80
2018-07-14T23:44:38.064Z,20.80
2018-07-14T23:47:05.974Z,20.70
2018-07-14T23:49:34.067Z,20.70
2018-07-14T23:52:02.199Z,20.60
2018-07-14T23:54:30.125Z,20.40
2018-07-14T23:56:58.075Z,20.60
2018-07-14T23:59:26.058Z,20.50
